sensor_id;sensor_type;location;lat;lon;timestamp;P1;durP1;ratioP1;P2;durP2;ratioP2
13712;SDS011;6928;50.546;7.120;2024-02-16T00:02:20;1.00;;;1.00;;
13712;SDS011;6928;50.546;7.120;2024-02-16T00:04:47;2.13;;;1.10;;
13712;SDS011;6928;50.546;7.120;2024-02-16T00:07:14;1.83;;;1.38;;
13712;SDS011;6928;50.546;7.120;2024-02-16T00:09:41;1.88;;;1.15;;
13712;SDS011;6928;50.546;7.120;2024-02-16T00:12:09;2.13;;;1.30;;
13712;SDS011;6928;50.546;7.120;2024-02-16T00:14:42;1.27;;;1.13;;
13712;SDS011;6928;50.546;7.120;2024-02-16T00:17:11;0.98;;;0.90;;
13712;SDS011;6928;50.546;7.120;2024-02-16T00:19:38;1.13;;;0.95;;
13712;SDS011;6928;50.546;7.120;2024-02-16T00:22:04;1.67;;;1.27;;
13712;SDS011;6928;50.546;7.120;2024-02-16T00:24:32;2.22;;;1.17;;
13712;SDS011;6928;50.546;7.120;2024-02-16T00:26:59;2.65;;;1.10;;
13712;SDS011;6928;50.546;7.120;2024-02-16T00:29:32;1.52;;;1.13;;
13712;SDS011;6928;50.546;7.120;2024-02-16T00:31:58;0.80;;;0.80;;
13712;SDS011;6928;50.546;7.120;2024-02-16T00:34:28;1.23;;;1.13;;
13712;SDS011;6928;50.546;7.120;2024-02-16T00:36:57;1.58;;;1.13;;
13712;SDS011;6928;50.546;7.120;2024-02-16T00:39:24;2.90;;;1.00;;
13712;SDS011;6928;50.546;7.120;2024-02-16T00:41:51;3.42;;;1.02;;
13712;SDS011;6928;50.546;7.120;2024-02-16T00:44:17;2.97;;;0.90;;
13712;SDS011;6928;50.546;7.120;2024-02-16T00:46:46;1.20;;;1.10;;
13712;SDS011;6928;50.546;7.120;2024-02-16T00:49:15;0.88;;;0.77;;
13712;SDS011;6928;50.546;7.120;2024-02-16T00:52:05;1.20;;;1.10;;
13712;SDS011;6928;50.546;7.120;2024-02-16T00:54:52;1.25;;;1.02;;
13712;SDS011;6928;50.546;7.120;2024-02-16T00:57:37;2.50;;;1.30;;
13712;SDS011;6928;50.546;7.120;2024-02-16T01:00:08;1.85;;;1.25;;
13712;SDS011;6928;50.546;7.120;2024-02-16T01:02:42;2.17;;;1.30;;
13712;SDS011;6928;50.546;7.120;2024-02-16T01:05:08;1.92;;;1.00;;
13712;SDS011;6928;50.546;7.120;2024-02-16T01:07:35;2.67;;;1.10;;
13712;SDS011;6928;50.546;7.120;2024-02-16T01:10:04;2.33;;;1.00;;
13712;SDS011;6928;50.546;7.120;2024-02-16T01:12:32;1.77;;;1.08;;
13712;SDS011;6928;50.546;7.120;2024-02-16T01:14:59;3.53;;;1.30;;
13712;SDS011;6928;50.546;7.120;2024-02-16T01:17:26;9.65;;;1.40;;
13712;SDS011;6928;50.546;7.120;2024-02-16T01:19:54;2.08;;;1.23;;
13712;SDS011;6928;50.546;7.120;2024-02-16T01:22:21;1.83;;;1.38;;
13712;SDS011;6928;50.546;7.120;2024-02-16T01:24:48;2.25;;;1.10;;
13712;SDS011;6928;50.546;7.120;2024-02-16T01:27:15;4.75;;;1.23;;
13712;SDS011;6928;50.546;7.120;2024-02-16T01:29:42;2.67;;;1.10;;
13712;SDS011;6928;50.546;7.120;2024-02-16T01:32:09;1.83;;;1.25;;
13712;SDS011;6928;50.546;7.120;2024-02-16T01:34:36;1.42;;;1.10;;
13712;SDS011;6928;50.546;7.120;2024-02-16T01:37:05;2.25;;;1.13;;
13712;SDS011;6928;50.546;7.120;2024-02-16T01:39:32;1.17;;;0.80;;
13712;SDS011;6928;50.546;7.120;2024-02-16T01:41:59;1.55;;;1.10;;
13712;SDS011;6928;50.546;7.120;2024-02-16T01:44:26;4.10;;;1.30;;
13712;SDS011;6928;50.546;7.120;2024-02-16T01:46:52;6.47;;;1.20;;
13712;SDS011;6928;50.546;7.120;2024-02-16T01:49:19;5.93;;;1.10;;
13712;SDS011;6928;50.546;7.120;2024-02-16T01:52:20;3.20;;;1.00;;
13712;SDS011;6928;50.546;7.120;2024-02-16T01:54:57;2.08;;;1.10;;
13712;SDS011;6928;50.546;7.120;2024-02-16T01:57:43;1.60;;;1.08;;
13712;SDS011;6928;50.546;7.120;2024-02-16T02:00:13;3.50;;;2.75;;
13712;SDS011;6928;50.546;7.120;2024-02-16T02:02:50;2.88;;;1.30;;
13712;SDS011;6928;50.546;7.120;2024-02-16T02:05:17;0.93;;;0.82;;
13712;SDS011;6928;50.546;7.120;2024-02-16T02:07:45;1.58;;;1.10;;
13712;SDS011;6928;50.546;7.120;2024-02-16T02:10:12;2.17;;;1.10;;
13712;SDS011;6928;50.546;7.120;2024-02-16T02:12:39;2.22;;;1.10;;
13712;SDS011;6928;50.546;7.120;2024-02-16T02:15:07;1.13;;;1.02;;
13712;SDS011;6928;50.546;7.120;2024-02-16T02:17:34;4.25;;;1.20;;
13712;SDS011;6928;50.546;7.120;2024-02-16T02:20:11;1.10;;;1.00;;
13712;SDS011;6928;50.546;7.120;2024-02-16T02:22:49;3.53;;;1.23;;
13712;SDS011;6928;50.546;7.120;2024-02-16T02:25:39;2.60;;;1.10;;
13712;SDS011;6928;50.546;7.120;2024-02-16T02:28:19;3.58;;;1.25;;
13712;SDS011;6928;50.546;7.120;2024-02-16T02:30:52;3.95;;;1.20;;
13712;SDS011;6928;50.546;7.120;2024-02-16T02:33:25;1.88;;;1.10;;
13712;SDS011;6928;50.546;7.120;2024-02-16T02:35:51;2.17;;;1.27;;
13712;SDS011;6928;50.546;7.120;2024-02-16T02:38:20;3.58;;;1.00;;
13712;SDS011;6928;50.546;7.120;2024-02-16T02:40:46;4.15;;;1.13;;
13712;SDS011;6928;50.546;7.120;2024-02-16T02:43:13;3.63;;;1.20;;
13712;SDS011;6928;50.546;7.120;2024-02-16T02:45:40;4.18;;;0.93;;
13712;SDS011;6928;50.546;7.120;2024-02-16T02:48:07;4.70;;;1.25;;
13712;SDS011;6928;50.546;7.120;2024-02-16T02:50:34;4.80;;;1.10;;
13712;SDS011;6928;50.546;7.120;2024-02-16T02:53:01;2.15;;;1.10;;
13712;SDS011;6928;50.546;7.120;2024-02-16T03:02:05;3.65;;;1.40;;
13712;SDS011;6928;50.546;7.120;2024-02-16T03:04:38;3.72;;;1.23;;
13712;SDS011;6928;50.546;7.120;2024-02-16T03:07:10;1.90;;;1.30;;
13712;SDS011;6928;50.546;7.120;2024-02-16T03:09:39;1.83;;;0.95;;
13712;SDS011;6928;50.546;7.120;2024-02-16T03:12:08;2.28;;;1.30;;
13712;SDS011;6928;50.546;7.120;2024-02-16T03:14:49;5.15;;;0.95;;
13712;SDS011;6928;50.546;7.120;2024-02-16T03:17:17;3.70;;;1.15;;
13712;SDS011;6928;50.546;7.120;2024-02-16T03:19:43;4.78;;;1.20;;
13712;SDS011;6928;50.546;7.120;2024-02-16T03:22:10;2.38;;;1.30;;
13712;SDS011;6928;50.546;7.120;2024-02-16T03:24:37;1.10;;;1.00;;
13712;SDS011;6928;50.546;7.120;2024-02-16T03:27:04;1.23;;;1.00;;
13712;SDS011;6928;50.546;7.120;2024-02-16T03:29:31;1.45;;;1.05;;
13712;SDS011;6928;50.546;7.120;2024-02-16T03:31:59;2.20;;;1.30;;
13712;SDS011;6928;50.546;7.120;2024-02-16T03:34:26;4.80;;;1.50;;
13712;SDS011;6928;50.546;7.120;2024-02-16T03:36:53;1.88;;;1.30;;
13712;SDS011;6928;50.546;7.120;2024-02-16T03:39:20;3.15;;;1.15;;
13712;SDS011;6928;50.546;7.120;2024-02-16T03:41:47;1.00;;;1.00;;
13712;SDS011;6928;50.546;7.120;2024-02-16T03:44:14;4.95;;;1.10;;
13712;SDS011;6928;50.546;7.120;2024-02-16T03:46:42;2.85;;;1.40;;
13712;SDS011;6928;50.546;7.120;2024-02-16T03:49:12;4.18;;;1.40;;
13712;SDS011;6928;50.546;7.120;2024-02-16T03:51:44;2.70;;;1.13;;
13712;SDS011;6928;50.546;7.120;2024-02-16T03:54:31;2.60;;;1.33;;
13712;SDS011;6928;50.546;7.120;2024-02-16T03:57:14;2.28;;;1.30;;
13712;SDS011;6928;50.546;7.120;2024-02-16T03:59:44;2.25;;;1.40;;
13712;SDS011;6928;50.546;7.120;2024-02-16T04:02:27;1.40;;;1.30;;
13712;SDS011;6928;50.546;7.120;2024-02-16T04:04:55;3.78;;;1.10;;
13712;SDS011;6928;50.546;7.120;2024-02-16T04:07:22;1.58;;;1.05;;
13712;SDS011;6928;50.546;7.120;2024-02-16T04:09:49;6.18;;;1.10;;
13712;SDS011;6928;50.546;7.120;2024-02-16T04:12:16;2.05;;;1.25;;
13712;SDS011;6928;50.546;7.120;2024-02-16T04:14:42;1.90;;;1.38;;
13712;SDS011;6928;50.546;7.120;2024-02-16T04:17:09;2.67;;;1.20;;
13712;SDS011;6928;50.546;7.120;2024-02-16T04:19:36;0.98;;;0.85;;
13712;SDS011;6928;50.546;7.120;2024-02-16T04:22:04;3.70;;;1.25;;
13712;SDS011;6928;50.546;7.120;2024-02-16T04:24:32;1.40;;;1.10;;
13712;SDS011;6928;50.546;7.120;2024-02-16T04:26:58;3.08;;;1.05;;
13712;SDS011;6928;50.546;7.120;2024-02-16T04:29:25;2.88;;;1.30;;
13712;SDS011;6928;50.546;7.120;2024-02-16T04:31:52;4.45;;;1.30;;
13712;SDS011;6928;50.546;7.120;2024-02-16T04:34:19;5.45;;;1.58;;
13712;SDS011;6928;50.546;7.120;2024-02-16T04:36:46;3.85;;;1.42;;
13712;SDS011;6928;50.546;7.120;2024-02-16T04:39:15;2.17;;;1.20;;
13712;SDS011;6928;50.546;7.120;2024-02-16T04:41:42;6.38;;;1.40;;
13712;SDS011;6928;50.546;7.120;2024-02-16T04:44:09;2.05;;;1.20;;
13712;SDS011;6928;50.546;7.120;2024-02-16T04:46:36;2.03;;;1.25;;
13712;SDS011;6928;50.546;7.120;2024-02-16T04:52:44;5.63;;;1.33;;
13712;SDS011;6928;50.546;7.120;2024-02-16T04:58:08;1.90;;;1.20;;
13712;SDS011;6928;50.546;7.120;2024-02-16T05:00:35;2.50;;;1.30;;
13712;SDS011;6928;50.546;7.120;2024-02-16T05:03:01;2.50;;;1.30;;
13712;SDS011;6928;50.546;7.120;2024-02-16T05:05:29;1.52;;;1.13;;
13712;SDS011;6928;50.546;7.120;2024-02-16T05:07:56;2.72;;;1.30;;
13712;SDS011;6928;50.546;7.120;2024-02-16T05:10:23;2.53;;;1.10;;
13712;SDS011;6928;50.546;7.120;2024-02-16T05:12:51;1.80;;;1.10;;
13712;SDS011;6928;50.546;7.120;2024-02-16T05:15:18;3.20;;;1.08;;
13712;SDS011;6928;50.546;7.120;2024-02-16T05:17:46;6.30;;;1.65;;
13712;SDS011;6928;50.546;7.120;2024-02-16T05:20:14;3.45;;;1.40;;
13712;SDS011;6928;50.546;7.120;2024-02-16T05:22:42;4.15;;;1.40;;
13712;SDS011;6928;50.546;7.120;2024-02-16T05:25:10;2.95;;;1.40;;
13712;SDS011;6928;50.546;7.120;2024-02-16T05:27:37;4.05;;;1.67;;
13712;SDS011;6928;50.546;7.120;2024-02-16T05:30:08;5.70;;;1.67;;
13712;SDS011;6928;50.546;7.120;2024-02-16T05:32:38;3.20;;;1.55;;
13712;SDS011;6928;50.546;7.120;2024-02-16T05:35:05;1.45;;;1.35;;
13712;SDS011;6928;50.546;7.120;2024-02-16T05:37:36;2.25;;;1.13;;
13712;SDS011;6928;50.546;7.120;2024-02-16T05:40:06;3.88;;;1.55;;
13712;SDS011;6928;50.546;7.120;2024-02-16T05:42:44;1.77;;;1.20;;
13712;SDS011;6928;50.546;7.120;2024-02-16T05:45:14;2.22;;;1.42;;
13712;SDS011;6928;50.546;7.120;2024-02-16T05:47:41;1.60;;;1.30;;
13712;SDS011;6928;50.546;7.120;2024-02-16T05:50:08;2.67;;;1.38;;
13712;SDS011;6928;50.546;7.120;2024-02-16T05:52:37;3.10;;;1.45;;
13712;SDS011;6928;50.546;7.120;2024-02-16T05:55:05;3.53;;;1.40;;
13712;SDS011;6928;50.546;7.120;2024-02-16T05:57:33;5.00;;;1.48;;
13712;SDS011;6928;50.546;7.120;2024-02-16T06:00:00;4.50;;;1.98;;
13712;SDS011;6928;50.546;7.120;2024-02-16T06:02:30;3.83;;;1.50;;
13712;SDS011;6928;50.546;7.120;2024-02-16T06:04:57;2.15;;;1.63;;
13712;SDS011;6928;50.546;7.120;2024-02-16T06:07:24;3.17;;;1.63;;
13712;SDS011;6928;50.546;7.120;2024-02-16T06:09:50;7.28;;;1.83;;
13712;SDS011;6928;50.546;7.120;2024-02-16T06:12:19;2.45;;;2.03;;
13712;SDS011;6928;50.546;7.120;2024-02-16T06:14:46;4.05;;;1.90;;
13712;SDS011;6928;50.546;7.120;2024-02-16T06:17:13;2.55;;;1.33;;
13712;SDS011;6928;50.546;7.120;2024-02-16T06:19:42;3.33;;;1.88;;
13712;SDS011;6928;50.546;7.120;2024-02-16T06:22:10;3.53;;;1.90;;
13712;SDS011;6928;50.546;7.120;2024-02-16T06:24:37;2.25;;;1.95;;
13712;SDS011;6928;50.546;7.120;2024-02-16T06:27:04;1.63;;;1.42;;
13712;SDS011;6928;50.546;7.120;2024-02-16T06:29:33;3.72;;;1.50;;
13712;SDS011;6928;50.546;7.120;2024-02-16T06:32:00;3.20;;;1.60;;
13712;SDS011;6928;50.546;7.120;2024-02-16T06:34:27;3.30;;;1.80;;
13712;SDS011;6928;50.546;7.120;2024-02-16T06:36:57;4.30;;;1.70;;
13712;SDS011;6928;50.546;7.120;2024-02-16T06:39:24;2.33;;;1.60;;
13712;SDS011;6928;50.546;7.120;2024-02-16T06:41:51;3.17;;;1.80;;
13712;SDS011;6928;50.546;7.120;2024-02-16T06:44:17;2.03;;;1.60;;
13712;SDS011;6928;50.546;7.120;2024-02-16T06:46:43;3.20;;;1.50;;
13712;SDS011;6928;50.546;7.120;2024-02-16T06:49:10;5.93;;;1.70;;
13712;SDS011;6928;50.546;7.120;2024-02-16T06:51:37;2.80;;;1.35;;
13712;SDS011;6928;50.546;7.120;2024-02-16T06:54:06;1.98;;;1.80;;
13712;SDS011;6928;50.546;7.120;2024-02-16T06:56:33;2.35;;;2.17;;
13712;SDS011;6928;50.546;7.120;2024-02-16T06:59:01;5.88;;;2.25;;
13712;SDS011;6928;50.546;7.120;2024-02-16T07:01:27;2.53;;;2.03;;
13712;SDS011;6928;50.546;7.120;2024-02-16T07:03:54;2.50;;;1.95;;
13712;SDS011;6928;50.546;7.120;2024-02-16T07:06:21;5.30;;;2.60;;
13712;SDS011;6928;50.546;7.120;2024-02-16T07:08:48;5.05;;;2.50;;
13712;SDS011;6928;50.546;7.120;2024-02-16T07:11:17;6.13;;;3.22;;
13712;SDS011;6928;50.546;7.120;2024-02-16T07:13:46;5.53;;;2.70;;
13712;SDS011;6928;50.546;7.120;2024-02-16T07:16:13;5.70;;;2.40;;
13712;SDS011;6928;50.546;7.120;2024-02-16T07:18:39;2.90;;;2.22;;
13712;SDS011;6928;50.546;7.120;2024-02-16T07:21:07;6.35;;;2.70;;
13712;SDS011;6928;50.546;7.120;2024-02-16T07:23:34;5.72;;;2.95;;
13712;SDS011;6928;50.546;7.120;2024-02-16T07:26:01;4.55;;;2.05;;
13712;SDS011;6928;50.546;7.120;2024-02-16T07:28:30;3.75;;;2.33;;
13712;SDS011;6928;50.546;7.120;2024-02-16T07:30:56;2.72;;;1.85;;
13712;SDS011;6928;50.546;7.120;2024-02-16T07:33:23;1.95;;;1.80;;
13712;SDS011;6928;50.546;7.120;2024-02-16T07:35:53;3.42;;;1.95;;
13712;SDS011;6928;50.546;7.120;2024-02-16T07:38:20;5.63;;;1.83;;
13712;SDS011;6928;50.546;7.120;2024-02-16T07:40:47;3.95;;;1.67;;
13712;SDS011;6928;50.546;7.120;2024-02-16T07:43:15;6.30;;;2.20;;
13712;SDS011;6928;50.546;7.120;2024-02-16T07:45:43;4.85;;;1.80;;
13712;SDS011;6928;50.546;7.120;2024-02-16T07:48:10;5.40;;;2.40;;
13712;SDS011;6928;50.546;7.120;2024-02-16T07:50:37;2.58;;;1.60;;
13712;SDS011;6928;50.546;7.120;2024-02-16T07:53:04;2.90;;;1.73;;
13712;SDS011;6928;50.546;7.120;2024-02-16T07:55:31;2.92;;;2.25;;
13712;SDS011;6928;50.546;7.120;2024-02-16T07:57:58;2.70;;;1.80;;
13712;SDS011;6928;50.546;7.120;2024-02-16T08:00:24;3.08;;;1.60;;
13712;SDS011;6928;50.546;7.120;2024-02-16T08:02:54;4.28;;;1.90;;
13712;SDS011;6928;50.546;7.120;2024-02-16T08:05:21;4.88;;;1.63;;
13712;SDS011;6928;50.546;7.120;2024-02-16T08:07:49;2.05;;;1.58;;
13712;SDS011;6928;50.546;7.120;2024-02-16T08:10:18;3.25;;;1.50;;
13712;SDS011;6928;50.546;7.120;2024-02-16T08:12:47;1.98;;;1.40;;
13712;SDS011;6928;50.546;7.120;2024-02-16T08:15:14;3.78;;;1.65;;
13712;SDS011;6928;50.546;7.120;2024-02-16T08:17:40;3.80;;;1.30;;
13712;SDS011;6928;50.546;7.120;2024-02-16T08:20:09;2.45;;;1.38;;
13712;SDS011;6928;50.546;7.120;2024-02-16T08:22:37;2.90;;;1.77;;
13712;SDS011;6928;50.546;7.120;2024-02-16T08:25:04;6.75;;;1.50;;
13712;SDS011;6928;50.546;7.120;2024-02-16T08:27:32;1.35;;;1.05;;
13712;SDS011;6928;50.546;7.120;2024-02-16T08:29:59;2.83;;;1.40;;
13712;SDS011;6928;50.546;7.120;2024-02-16T08:32:27;3.25;;;1.50;;
13712;SDS011;6928;50.546;7.120;2024-02-16T08:34:54;2.13;;;1.77;;
13712;SDS011;6928;50.546;7.120;2024-02-16T08:37:24;3.95;;;1.25;;
13712;SDS011;6928;50.546;7.120;2024-02-16T08:39:52;3.13;;;1.70;;
13712;SDS011;6928;50.546;7.120;2024-02-16T08:42:19;1.60;;;1.50;;
13712;SDS011;6928;50.546;7.120;2024-02-16T08:44:47;2.50;;;1.70;;
13712;SDS011;6928;50.546;7.120;2024-02-16T08:47:14;2.22;;;1.20;;
13712;SDS011;6928;50.546;7.120;2024-02-16T08:49:41;2.45;;;1.42;;
13712;SDS011;6928;50.546;7.120;2024-02-16T08:52:08;4.97;;;1.50;;
13712;SDS011;6928;50.546;7.120;2024-02-16T08:54:36;3.33;;;1.77;;
13712;SDS011;6928;50.546;7.120;2024-02-16T08:57:03;2.65;;;1.48;;
13712;SDS011;6928;50.546;7.120;2024-02-16T08:59:30;4.22;;;1.55;;
13712;SDS011;6928;50.546;7.120;2024-02-16T09:01:59;4.60;;;1.60;;
13712;SDS011;6928;50.546;7.120;2024-02-16T09:04:26;2.55;;;1.73;;
13712;SDS011;6928;50.546;7.120;2024-02-16T09:06:53;3.15;;;1.63;;
13712;SDS011;6928;50.546;7.120;2024-02-16T09:09:19;3.58;;;1.98;;
13712;SDS011;6928;50.546;7.120;2024-02-16T09:11:49;7.78;;;2.50;;
13712;SDS011;6928;50.546;7.120;2024-02-16T09:14:18;3.50;;;2.17;;
13712;SDS011;6928;50.546;7.120;2024-02-16T09:16:44;3.35;;;2.40;;
13712;SDS011;6928;50.546;7.120;2024-02-16T09:19:14;2.40;;;2.00;;
13712;SDS011;6928;50.546;7.120;2024-02-16T09:21:41;4.35;;;1.80;;
13712;SDS011;6928;50.546;7.120;2024-02-16T09:24:08;1.65;;;1.55;;
13712;SDS011;6928;50.546;7.120;2024-02-16T09:26:39;5.03;;;1.70;;
13712;SDS011;6928;50.546;7.120;2024-02-16T09:29:08;3.63;;;1.83;;
13712;SDS011;6928;50.546;7.120;2024-02-16T09:31:35;5.03;;;2.00;;
13712;SDS011;6928;50.546;7.120;2024-02-16T09:34:02;6.55;;;2.13;;
13712;SDS011;6928;50.546;7.120;2024-02-16T09:36:29;5.35;;;2.20;;
13712;SDS011;6928;50.546;7.120;2024-02-16T09:38:57;3.78;;;2.30;;
13712;SDS011;6928;50.546;7.120;2024-02-16T09:41:24;6.20;;;2.03;;
13712;SDS011;6928;50.546;7.120;2024-02-16T09:43:53;7.30;;;2.05;;
13712;SDS011;6928;50.546;7.120;2024-02-16T09:46:22;4.93;;;2.20;;
13712;SDS011;6928;50.546;7.120;2024-02-16T09:48:50;6.53;;;2.53;;
13712;SDS011;6928;50.546;7.120;2024-02-16T09:51:20;4.72;;;2.20;;
13712;SDS011;6928;50.546;7.120;2024-02-16T09:53:49;9.25;;;2.25;;
13712;SDS011;6928;50.546;7.120;2024-02-16T09:56:18;6.30;;;2.80;;
13712;SDS011;6928;50.546;7.120;2024-02-16T09:58:46;5.60;;;1.85;;
13712;SDS011;6928;50.546;7.120;2024-02-16T10:01:17;3.58;;;1.85;;
13712;SDS011;6928;50.546;7.120;2024-02-16T10:03:47;2.47;;;2.13;;
13712;SDS011;6928;50.546;7.120;2024-02-16T10:06:15;5.85;;;2.17;;
13712;SDS011;6928;50.546;7.120;2024-02-16T10:08:49;3.80;;;1.77;;
13712;SDS011;6928;50.546;7.120;2024-02-16T10:11:17;6.70;;;1.77;;
13712;SDS011;6928;50.546;7.120;2024-02-16T10:13:55;6.90;;;1.80;;
13712;SDS011;6928;50.546;7.120;2024-02-16T10:16:23;2.97;;;1.73;;
13712;SDS011;6928;50.546;7.120;2024-02-16T10:18:51;2.70;;;1.98;;
13712;SDS011;6928;50.546;7.120;2024-02-16T10:21:24;8.65;;;1.95;;
13712;SDS011;6928;50.546;7.120;2024-02-16T10:23:57;4.22;;;1.60;;
13712;SDS011;6928;50.546;7.120;2024-02-16T10:26:27;10.38;;;2.50;;
13712;SDS011;6928;50.546;7.120;2024-02-16T10:28:55;2.47;;;1.55;;
13712;SDS011;6928;50.546;7.120;2024-02-16T10:31:23;5.38;;;2.78;;
13712;SDS011;6928;50.546;7.120;2024-02-16T10:33:57;5.22;;;1.67;;
13712;SDS011;6928;50.546;7.120;2024-02-16T10:36:27;8.63;;;1.63;;
13712;SDS011;6928;50.546;7.120;2024-02-16T10:38:57;4.65;;;1.52;;
13712;SDS011;6928;50.546;7.120;2024-02-16T10:41:26;3.55;;;1.55;;
13712;SDS011;6928;50.546;7.120;2024-02-16T10:43:54;13.48;;;1.92;;
13712;SDS011;6928;50.546;7.120;2024-02-16T10:46:22;3.72;;;1.35;;
13712;SDS011;6928;50.546;7.120;2024-02-16T10:48:50;5.35;;;1.80;;
13712;SDS011;6928;50.546;7.120;2024-02-16T10:51:20;1.80;;;1.40;;
13712;SDS011;6928;50.546;7.120;2024-02-16T10:53:51;2.17;;;1.40;;
13712;SDS011;6928;50.546;7.120;2024-02-16T10:59:02;7.28;;;1.90;;
13712;SDS011;6928;50.546;7.120;2024-02-16T11:01:32;7.10;;;2.00;;
13712;SDS011;6928;50.546;7.120;2024-02-16T11:04:03;8.52;;;2.47;;
13712;SDS011;6928;50.546;7.120;2024-02-16T11:06:45;5.65;;;2.05;;
13712;SDS011;6928;50.546;7.120;2024-02-16T11:09:22;6.95;;;1.77;;
13712;SDS011;6928;50.546;7.120;2024-02-16T11:11:52;3.20;;;1.52;;
13712;SDS011;6928;50.546;7.120;2024-02-16T11:14:20;4.68;;;1.60;;
13712;SDS011;6928;50.546;7.120;2024-02-16T11:16:49;8.18;;;1.50;;
13712;SDS011;6928;50.546;7.120;2024-02-16T11:19:16;2.88;;;1.70;;
13712;SDS011;6928;50.546;7.120;2024-02-16T11:21:56;6.18;;;1.50;;
13712;SDS011;6928;50.546;7.120;2024-02-16T11:24:33;2.30;;;1.60;;
13712;SDS011;6928;50.546;7.120;2024-02-16T11:27:01;1.58;;;1.40;;
13712;SDS011;6928;50.546;7.120;2024-02-16T11:29:32;3.63;;;1.40;;
13712;SDS011;6928;50.546;7.120;2024-02-16T11:32:01;3.38;;;1.58;;
13712;SDS011;6928;50.546;7.120;2024-02-16T11:34:29;1.60;;;1.27;;
13712;SDS011;6928;50.546;7.120;2024-02-16T11:36:58;7.75;;;1.90;;
13712;SDS011;6928;50.546;7.120;2024-02-16T11:39:29;3.03;;;1.83;;
13712;SDS011;6928;50.546;7.120;2024-02-16T11:42:01;7.88;;;1.63;;
13712;SDS011;6928;50.546;7.120;2024-02-16T11:44:29;4.25;;;1.95;;
13712;SDS011;6928;50.546;7.120;2024-02-16T11:46:58;8.30;;;2.10;;
13712;SDS011;6928;50.546;7.120;2024-02-16T11:49:25;6.57;;;1.90;;
13712;SDS011;6928;50.546;7.120;2024-02-16T11:51:53;5.70;;;2.50;;
13712;SDS011;6928;50.546;7.120;2024-02-16T11:54:22;9.43;;;2.10;;
13712;SDS011;6928;50.546;7.120;2024-02-16T11:56:49;2.13;;;1.67;;
13712;SDS011;6928;50.546;7.120;2024-02-16T11:59:16;4.07;;;1.92;;
13712;SDS011;6928;50.546;7.120;2024-02-16T12:01:51;6.10;;;1.80;;
13712;SDS011;6928;50.546;7.120;2024-02-16T12:04:19;2.58;;;1.70;;
13712;SDS011;6928;50.546;7.120;2024-02-16T12:06:55;7.68;;;2.55;;
13712;SDS011;6928;50.546;7.120;2024-02-16T12:09:24;3.92;;;1.65;;
13712;SDS011;6928;50.546;7.120;2024-02-16T12:11:52;2.90;;;1.80;;
13712;SDS011;6928;50.546;7.120;2024-02-16T12:14:21;5.30;;;2.05;;
13712;SDS011;6928;50.546;7.120;2024-02-16T12:16:48;8.48;;;1.90;;
13712;SDS011;6928;50.546;7.120;2024-02-16T12:19:16;2.67;;;1.63;;
13712;SDS011;6928;50.546;7.120;2024-02-16T12:21:48;4.20;;;1.70;;
13712;SDS011;6928;50.546;7.120;2024-02-16T12:24:17;2.58;;;1.77;;
13712;SDS011;6928;50.546;7.120;2024-02-16T12:26:45;3.13;;;1.58;;
13712;SDS011;6928;50.546;7.120;2024-02-16T12:29:12;6.47;;;2.45;;
13712;SDS011;6928;50.546;7.120;2024-02-16T12:31:41;3.40;;;1.85;;
13712;SDS011;6928;50.546;7.120;2024-02-16T12:34:08;5.00;;;1.90;;
13712;SDS011;6928;50.546;7.120;2024-02-16T12:36:35;4.35;;;1.90;;
13712;SDS011;6928;50.546;7.120;2024-02-16T12:39:04;8.98;;;1.95;;
13712;SDS011;6928;50.546;7.120;2024-02-16T12:41:31;6.55;;;2.30;;
13712;SDS011;6928;50.546;7.120;2024-02-16T12:44:00;3.92;;;2.00;;
13712;SDS011;6928;50.546;7.120;2024-02-16T12:46:27;8.20;;;1.95;;
13712;SDS011;6928;50.546;7.120;2024-02-16T12:48:57;5.63;;;1.80;;
13712;SDS011;6928;50.546;7.120;2024-02-16T12:51:24;4.80;;;1.60;;
13712;SDS011;6928;50.546;7.120;2024-02-16T12:53:51;5.70;;;1.73;;
13712;SDS011;6928;50.546;7.120;2024-02-16T12:56:18;6.40;;;1.63;;
13712;SDS011;6928;50.546;7.120;2024-02-16T12:58:46;6.53;;;2.05;;
13712;SDS011;6928;50.546;7.120;2024-02-16T13:01:14;3.38;;;1.63;;
13712;SDS011;6928;50.546;7.120;2024-02-16T13:03:43;4.40;;;1.77;;
13712;SDS011;6928;50.546;7.120;2024-02-16T13:06:19;1.45;;;1.35;;
13712;SDS011;6928;50.546;7.120;2024-02-16T13:08:56;4.18;;;1.50;;
13712;SDS011;6928;50.546;7.120;2024-02-16T13:11:23;1.83;;;1.42;;
13712;SDS011;6928;50.546;7.120;2024-02-16T13:13:50;4.20;;;1.67;;
13712;SDS011;6928;50.546;7.120;2024-02-16T13:16:19;5.63;;;2.00;;
13712;SDS011;6928;50.546;7.120;2024-02-16T13:18:46;2.65;;;1.88;;
13712;SDS011;6928;50.546;7.120;2024-02-16T13:21:13;8.43;;;2.05;;
13712;SDS011;6928;50.546;7.120;2024-02-16T13:23:40;12.20;;;4.07;;
13712;SDS011;6928;50.546;7.120;2024-02-16T13:26:07;3.30;;;1.90;;
13712;SDS011;6928;50.546;7.120;2024-02-16T13:28:34;5.15;;;2.00;;
13712;SDS011;6928;50.546;7.120;2024-02-16T13:31:02;2.70;;;1.63;;
13712;SDS011;6928;50.546;7.120;2024-02-16T13:33:30;3.63;;;1.83;;
13712;SDS011;6928;50.546;7.120;2024-02-16T13:35:57;3.92;;;1.83;;
13712;SDS011;6928;50.546;7.120;2024-02-16T13:38:24;4.13;;;2.03;;
13712;SDS011;6928;50.546;7.120;2024-02-16T13:40:52;2.67;;;2.00;;
13712;SDS011;6928;50.546;7.120;2024-02-16T13:43:18;6.55;;;1.92;;
13712;SDS011;6928;50.546;7.120;2024-02-16T13:45:47;18.00;;;2.20;;
13712;SDS011;6928;50.546;7.120;2024-02-16T13:48:16;4.65;;;2.17;;
13712;SDS011;6928;50.546;7.120;2024-02-16T13:50:45;2.53;;;1.70;;
13712;SDS011;6928;50.546;7.120;2024-02-16T13:53:13;4.57;;;2.00;;
13712;SDS011;6928;50.546;7.120;2024-02-16T13:55:41;8.15;;;2.10;;
13712;SDS011;6928;50.546;7.120;2024-02-16T13:58:08;3.58;;;2.35;;
13712;SDS011;6928;50.546;7.120;2024-02-16T14:00:36;3.80;;;2.42;;
13712;SDS011;6928;50.546;7.120;2024-02-16T14:03:03;4.55;;;2.20;;
13712;SDS011;6928;50.546;7.120;2024-02-16T14:05:33;6.70;;;2.40;;
13712;SDS011;6928;50.546;7.120;2024-02-16T14:08:02;7.25;;;2.22;;
13712;SDS011;6928;50.546;7.120;2024-02-16T14:10:31;5.90;;;2.15;;
13712;SDS011;6928;50.546;7.120;2024-02-16T14:12:58;3.50;;;2.13;;
13712;SDS011;6928;50.546;7.120;2024-02-16T14:15:24;5.65;;;2.25;;
13712;SDS011;6928;50.546;7.120;2024-02-16T14:17:51;2.72;;;2.03;;
13712;SDS011;6928;50.546;7.120;2024-02-16T14:20:18;4.90;;;2.10;;
13712;SDS011;6928;50.546;7.120;2024-02-16T14:22:46;7.07;;;2.22;;
13712;SDS011;6928;50.546;7.120;2024-02-16T14:25:15;11.45;;;2.17;;
13712;SDS011;6928;50.546;7.120;2024-02-16T14:27:42;3.03;;;2.42;;
13712;SDS011;6928;50.546;7.120;2024-02-16T14:30:10;3.85;;;2.38;;
13712;SDS011;6928;50.546;7.120;2024-02-16T14:32:38;4.10;;;2.40;;
13712;SDS011;6928;50.546;7.120;2024-02-16T14:35:06;5.43;;;2.05;;
13712;SDS011;6928;50.546;7.120;2024-02-16T14:37:33;3.85;;;2.08;;
13712;SDS011;6928;50.546;7.120;2024-02-16T14:40:00;5.05;;;2.72;;
13712;SDS011;6928;50.546;7.120;2024-02-16T14:42:31;2.47;;;1.85;;
13712;SDS011;6928;50.546;7.120;2024-02-16T14:44:58;5.22;;;2.83;;
13712;SDS011;6928;50.546;7.120;2024-02-16T14:47:25;3.42;;;2.13;;
13712;SDS011;6928;50.546;7.120;2024-02-16T14:49:51;4.65;;;1.80;;
13712;SDS011;6928;50.546;7.120;2024-02-16T14:52:18;3.28;;;1.98;;
13712;SDS011;6928;50.546;7.120;2024-02-16T14:54:45;4.18;;;2.20;;
13712;SDS011;6928;50.546;7.120;2024-02-16T14:57:12;7.20;;;2.30;;
13712;SDS011;6928;50.546;7.120;2024-02-16T14:59:41;3.53;;;1.90;;
13712;SDS011;6928;50.546;7.120;2024-02-16T15:02:07;8.45;;;1.95;;
13712;SDS011;6928;50.546;7.120;2024-02-16T15:04:34;2.95;;;2.25;;
13712;SDS011;6928;50.546;7.120;2024-02-16T15:07:02;8.15;;;2.70;;
13712;SDS011;6928;50.546;7.120;2024-02-16T15:09:30;4.10;;;1.65;;
13712;SDS011;6928;50.546;7.120;2024-02-16T15:11:57;4.47;;;1.70;;
13712;SDS011;6928;50.546;7.120;2024-02-16T15:14:24;3.13;;;2.00;;
13712;SDS011;6928;50.546;7.120;2024-02-16T15:16:52;5.93;;;1.95;;
13712;SDS011;6928;50.546;7.120;2024-02-16T15:19:19;5.68;;;2.10;;
13712;SDS011;6928;50.546;7.120;2024-02-16T15:21:46;2.40;;;1.65;;
13712;SDS011;6928;50.546;7.120;2024-02-16T15:24:13;5.25;;;2.13;;
13712;SDS011;6928;50.546;7.120;2024-02-16T15:26:39;8.05;;;2.15;;